sensor_id;sensor_type;location;lat;lon;timestamp;P1;durP1;ratioP1;P2;durP2;ratioP2
5209;SDS011;2624;48.048;11.706;2022-08-19T00:03:04;3.73;;;3.43;;
5209;SDS011;2624;48.048;11.706;2022-08-19T00:08:06;3.33;;;3.13;;
5209;SDS011;2624;48.048;11.706;2022-08-19T00:13:09;3.00;;;2.90;;
5209;SDS011;2624;48.048;11.706;2022-08-19T00:18:11;2.70;;;2.50;;
5209;SDS011;2624;48.048;11.706;2022-08-19T00:23:13;2.67;;;2.57;;
5209;SDS011;2624;48.048;11.706;2022-08-19T00:28:16;2.67;;;2.10;;
5209;SDS011;2624;48.048;11.706;2022-08-19T00:33:18;2.07;;;1.97;;
5209;SDS011;2624;48.048;11.706;2022-08-19T00:38:19;2.80;;;2.70;;
5209;SDS011;2624;48.048;11.706;2022-08-19T00:43:24;3.07;;;2.97;;
5209;SDS011;2624;48.048;11.706;2022-08-19T00:48:27;2.20;;;2.10;;
5209;SDS011;2624;48.048;11.706;2022-08-19T00:53:28;4.10;;;2.83;;
5209;SDS011;2624;48.048;11.706;2022-08-19T00:58:35;2.40;;;2.20;;
5209;SDS011;2624;48.048;11.706;2022-08-19T01:03:37;2.37;;;2.27;;
5209;SDS011;2624;48.048;11.706;2022-08-19T01:08:39;2.73;;;2.53;;
5209;SDS011;2624;48.048;11.706;2022-08-19T01:13:42;2.60;;;2.10;;
5209;SDS011;2624;48.048;11.706;2022-08-19T01:18:45;2.30;;;2.20;;
5209;SDS011;2624;48.048;11.706;2022-08-19T01:23:48;2.07;;;1.97;;
5209;SDS011;2624;48.048;11.706;2022-08-19T01:28:51;2.30;;;2.20;;
5209;SDS011;2624;48.048;11.706;2022-08-19T01:33:55;2.40;;;2.30;;
5209;SDS011;2624;48.048;11.706;2022-08-19T01:39:00;2.07;;;1.97;;
5209;SDS011;2624;48.048;11.706;2022-08-19T01:44:03;2.37;;;2.27;;
5209;SDS011;2624;48.048;11.706;2022-08-19T01:49:06;2.30;;;2.20;;
5209;SDS011;2624;48.048;11.706;2022-08-19T01:54:12;2.43;;;2.33;;
5209;SDS011;2624;48.048;11.706;2022-08-19T01:59:16;1.80;;;1.70;;
5209;SDS011;2624;48.048;11.706;2022-08-19T02:04:21;2.50;;;2.40;;
5209;SDS011;2624;48.048;11.706;2022-08-19T02:09:24;2.20;;;2.10;;
5209;SDS011;2624;48.048;11.706;2022-08-19T02:14:26;2.10;;;2.00;;
5209;SDS011;2624;48.048;11.706;2022-08-19T02:19:28;2.50;;;2.30;;
5209;SDS011;2624;48.048;11.706;2022-08-19T02:24:33;2.53;;;2.40;;
5209;SDS011;2624;48.048;11.706;2022-08-19T02:29:34;2.23;;;1.87;;
5209;SDS011;2624;48.048;11.706;2022-08-19T02:34:36;2.70;;;2.23;;
5209;SDS011;2624;48.048;11.706;2022-08-19T02:39:39;2.10;;;2.00;;
5209;SDS011;2624;48.048;11.706;2022-08-19T02:44:41;3.53;;;2.83;;
5209;SDS011;2624;48.048;11.706;2022-08-19T02:49:43;2.10;;;2.00;;
5209;SDS011;2624;48.048;11.706;2022-08-19T02:54:46;2.17;;;2.07;;
5209;SDS011;2624;48.048;11.706;2022-08-19T02:59:47;2.00;;;1.90;;
5209;SDS011;2624;48.048;11.706;2022-08-19T03:04:49;2.30;;;2.10;;
5209;SDS011;2624;48.048;11.706;2022-08-19T03:09:53;3.40;;;2.37;;
5209;SDS011;2624;48.048;11.706;2022-08-19T03:14:54;1.83;;;1.80;;
5209;SDS011;2624;48.048;11.706;2022-08-19T03:19:56;2.03;;;1.93;;
5209;SDS011;2624;48.048;11.706;2022-08-19T03:24:59;2.00;;;1.90;;
5209;SDS011;2624;48.048;11.706;2022-08-19T03:30:01;3.53;;;1.97;;
5209;SDS011;2624;48.048;11.706;2022-08-19T03:35:04;2.20;;;2.10;;
5209;SDS011;2624;48.048;11.706;2022-08-19T03:40:08;2.63;;;2.30;;
5209;SDS011;2624;48.048;11.706;2022-08-19T03:45:10;3.33;;;2.50;;
5209;SDS011;2624;48.048;11.706;2022-08-19T03:50:12;2.20;;;2.10;;
5209;SDS011;2624;48.048;11.706;2022-08-19T03:55:15;1.97;;;1.90;;
5209;SDS011;2624;48.048;11.706;2022-08-19T04:00:17;2.17;;;2.07;;
5209;SDS011;2624;48.048;11.706;2022-08-19T04:05:19;2.10;;;2.00;;
5209;SDS011;2624;48.048;11.706;2022-08-19T04:10:22;2.20;;;2.10;;
5209;SDS011;2624;48.048;11.706;2022-08-19T04:15:24;1.70;;;1.70;;
5209;SDS011;2624;48.048;11.706;2022-08-19T04:20:26;2.37;;;2.27;;
5209;SDS011;2624;48.048;11.706;2022-08-19T04:25:33;2.93;;;2.63;;
5209;SDS011;2624;48.048;11.706;2022-08-19T04:30:37;6.63;;;2.60;;
5209;SDS011;2624;48.048;11.706;2022-08-19T04:35:40;7.03;;;2.83;;
5209;SDS011;2624;48.048;11.706;2022-08-19T04:40:46;2.60;;;2.23;;
5209;SDS011;2624;48.048;11.706;2022-08-19T04:46:07;4.03;;;2.43;;
5209;SDS011;2624;48.048;11.706;2022-08-19T04:51:10;4.43;;;2.73;;
5209;SDS011;2624;48.048;11.706;2022-08-19T04:56:15;2.53;;;2.20;;
5209;SDS011;2624;48.048;11.706;2022-08-19T05:01:22;2.10;;;2.00;;
5209;SDS011;2624;48.048;11.706;2022-08-19T05:06:25;2.17;;;2.07;;
5209;SDS011;2624;48.048;11.706;2022-08-19T05:11:31;2.07;;;1.97;;
5209;SDS011;2624;48.048;11.706;2022-08-19T05:16:34;2.07;;;1.93;;
5209;SDS011;2624;48.048;11.706;2022-08-19T05:21:36;2.50;;;2.30;;
5209;SDS011;2624;48.048;11.706;2022-08-19T05:26:58;3.80;;;1.93;;
5209;SDS011;2624;48.048;11.706;2022-08-19T05:32:03;2.83;;;2.40;;
5209;SDS011;2624;48.048;11.706;2022-08-19T05:37:08;1.83;;;1.73;;
5209;SDS011;2624;48.048;11.706;2022-08-19T05:42:11;2.77;;;2.57;;
5209;SDS011;2624;48.048;11.706;2022-08-19T05:47:14;3.83;;;2.33;;
5209;SDS011;2624;48.048;11.706;2022-08-19T05:52:16;2.10;;;2.00;;
5209;SDS011;2624;48.048;11.706;2022-08-19T05:57:20;2.63;;;2.53;;
5209;SDS011;2624;48.048;11.706;2022-08-19T06:02:21;2.23;;;1.83;;
5209;SDS011;2624;48.048;11.706;2022-08-19T06:07:23;2.17;;;2.10;;
5209;SDS011;2624;48.048;11.706;2022-08-19T06:12:26;3.33;;;3.10;;
5209;SDS011;2624;48.048;11.706;2022-08-19T06:17:31;4.27;;;2.93;;
5209;SDS011;2624;48.048;11.706;2022-08-19T06:22:36;3.63;;;2.33;;
5209;SDS011;2624;48.048;11.706;2022-08-19T06:27:41;9.53;;;2.70;;
5209;SDS011;2624;48.048;11.706;2022-08-19T06:32:43;3.57;;;2.43;;
5209;SDS011;2624;48.048;11.706;2022-08-19T06:37:45;2.40;;;2.20;;
5209;SDS011;2624;48.048;11.706;2022-08-19T06:42:48;4.83;;;3.33;;
5209;SDS011;2624;48.048;11.706;2022-08-19T06:47:49;2.60;;;2.40;;
5209;SDS011;2624;48.048;11.706;2022-08-19T06:52:55;5.23;;;2.67;;
5209;SDS011;2624;48.048;11.706;2022-08-19T06:57:58;3.53;;;2.87;;
5209;SDS011;2624;48.048;11.706;2022-08-19T07:03:03;3.20;;;2.90;;
5209;SDS011;2624;48.048;11.706;2022-08-19T07:08:05;4.10;;;3.00;;
5209;SDS011;2624;48.048;11.706;2022-08-19T07:13:08;9.10;;;3.03;;
5209;SDS011;2624;48.048;11.706;2022-08-19T07:18:10;3.80;;;2.90;;
5209;SDS011;2624;48.048;11.706;2022-08-19T07:23:12;3.70;;;3.50;;
5209;SDS011;2624;48.048;11.706;2022-08-19T07:28:15;7.37;;;4.50;;
5209;SDS011;2624;48.048;11.706;2022-08-19T07:33:18;6.63;;;5.10;;
5209;SDS011;2624;48.048;11.706;2022-08-19T07:38:21;7.80;;;6.67;;
5209;SDS011;2624;48.048;11.706;2022-08-19T07:43:24;18.83;;;7.00;;
5209;SDS011;2624;48.048;11.706;2022-08-19T07:48:27;9.53;;;6.47;;
5209;SDS011;2624;48.048;11.706;2022-08-19T07:53:30;10.17;;;7.20;;
5209;SDS011;2624;48.048;11.706;2022-08-19T07:58:36;13.73;;;7.67;;
5209;SDS011;2624;48.048;11.706;2022-08-19T08:03:41;12.03;;;8.70;;
5209;SDS011;2624;48.048;11.706;2022-08-19T08:09:02;8.77;;;7.30;;
5209;SDS011;2624;48.048;11.706;2022-08-19T08:14:20;12.50;;;8.57;;
5209;SDS011;2624;48.048;11.706;2022-08-19T08:19:24;9.80;;;7.30;;
5209;SDS011;2624;48.048;11.706;2022-08-19T08:24:28;11.50;;;8.60;;
5209;SDS011;2624;48.048;11.706;2022-08-19T08:29:32;12.53;;;9.67;;
5209;SDS011;2624;48.048;11.706;2022-08-19T08:34:34;13.53;;;8.83;;
5209;SDS011;2624;48.048;11.706;2022-08-19T08:39:37;10.70;;;8.33;;
5209;SDS011;2624;48.048;11.706;2022-08-19T08:44:40;18.03;;;7.50;;
5209;SDS011;2624;48.048;11.706;2022-08-19T08:49:50;8.60;;;6.60;;
5209;SDS011;2624;48.048;11.706;2022-08-19T08:54:57;11.80;;;7.03;;
5209;SDS011;2624;48.048;11.706;2022-08-19T09:00:03;10.10;;;7.50;;
5209;SDS011;2624;48.048;11.706;2022-08-19T09:05:08;8.23;;;5.90;;
5209;SDS011;2624;48.048;11.706;2022-08-19T09:10:15;10.50;;;6.27;;
5209;SDS011;2624;48.048;11.706;2022-08-19T09:15:25;8.03;;;6.43;;
5209;SDS011;2624;48.048;11.706;2022-08-19T09:20:31;7.10;;;6.00;;
5209;SDS011;2624;48.048;11.706;2022-08-19T09:25:33;5.27;;;4.80;;
5209;SDS011;2624;48.048;11.706;2022-08-19T09:30:38;7.40;;;5.27;;
5209;SDS011;2624;48.048;11.706;2022-08-19T09:35:42;7.87;;;5.30;;
5209;SDS011;2624;48.048;11.706;2022-08-19T09:40:43;6.67;;;4.90;;
5209;SDS011;2624;48.048;11.706;2022-08-19T09:45:46;10.87;;;7.23;;
5209;SDS011;2624;48.048;11.706;2022-08-19T09:50:48;9.90;;;5.63;;
5209;SDS011;2624;48.048;11.706;2022-08-19T09:55:51;9.10;;;6.30;;
5209;SDS011;2624;48.048;11.706;2022-08-19T10:00:54;7.70;;;6.73;;
5209;SDS011;2624;48.048;11.706;2022-08-19T10:05:57;7.90;;;6.27;;
5209;SDS011;2624;48.048;11.706;2022-08-19T10:11:00;9.00;;;5.90;;
5209;SDS011;2624;48.048;11.706;2022-08-19T10:16:06;11.00;;;6.53;;
5209;SDS011;2624;48.048;11.706;2022-08-19T10:21:10;9.20;;;6.60;;
5209;SDS011;2624;48.048;11.706;2022-08-19T10:26:14;7.30;;;6.07;;
5209;SDS011;2624;48.048;11.706;2022-08-19T10:31:20;10.80;;;7.17;;
5209;SDS011;2624;48.048;11.706;2022-08-19T10:36:24;6.40;;;5.47;;
5209;SDS011;2624;48.048;11.706;2022-08-19T10:41:27;7.73;;;5.97;;
5209;SDS011;2624;48.048;11.706;2022-08-19T10:46:32;9.20;;;6.07;;
5209;SDS011;2624;48.048;11.706;2022-08-19T10:51:37;6.97;;;5.50;;
5209;SDS011;2624;48.048;11.706;2022-08-19T10:56:56;10.70;;;6.43;;
5209;SDS011;2624;48.048;11.706;2022-08-19T11:02:00;6.20;;;5.60;;
5209;SDS011;2624;48.048;11.706;2022-08-19T11:07:03;4.70;;;3.87;;
5209;SDS011;2624;48.048;11.706;2022-08-19T11:12:05;9.00;;;4.07;;
5209;SDS011;2624;48.048;11.706;2022-08-19T11:17:09;4.40;;;4.10;;
5209;SDS011;2624;48.048;11.706;2022-08-19T11:22:14;5.03;;;3.50;;
5209;SDS011;2624;48.048;11.706;2022-08-19T11:27:15;6.77;;;3.10;;
5209;SDS011;2624;48.048;11.706;2022-08-19T11:32:18;4.20;;;3.80;;
5209;SDS011;2624;48.048;11.706;2022-08-19T11:37:20;3.00;;;2.90;;
5209;SDS011;2624;48.048;11.706;2022-08-19T11:42:22;4.47;;;4.13;;
5209;SDS011;2624;48.048;11.706;2022-08-19T11:47:42;2.87;;;2.60;;
5209;SDS011;2624;48.048;11.706;2022-08-19T11:52:45;2.77;;;2.63;;
5209;SDS011;2624;48.048;11.706;2022-08-19T11:57:47;3.30;;;3.00;;
5209;SDS011;2624;48.048;11.706;2022-08-19T12:02:50;2.20;;;2.10;;
5209;SDS011;2624;48.048;11.706;2022-08-19T12:07:52;2.40;;;2.30;;
5209;SDS011;2624;48.048;11.706;2022-08-19T12:12:54;2.13;;;2.03;;
5209;SDS011;2624;48.048;11.706;2022-08-19T12:17:57;2.40;;;2.23;;
5209;SDS011;2624;48.048;11.706;2022-08-19T12:22:59;4.07;;;3.73;;
5209;SDS011;2624;48.048;11.706;2022-08-19T12:28:01;3.50;;;3.20;;
5209;SDS011;2624;48.048;11.706;2022-08-19T12:33:04;3.80;;;3.50;;
5209;SDS011;2624;48.048;11.706;2022-08-19T12:38:06;2.40;;;2.20;;
5209;SDS011;2624;48.048;11.706;2022-08-19T12:43:08;3.50;;;3.30;;
5209;SDS011;2624;48.048;11.706;2022-08-19T12:48:13;4.00;;;3.80;;
5209;SDS011;2624;48.048;11.706;2022-08-19T12:53:15;2.00;;;1.90;;
5209;SDS011;2624;48.048;11.706;2022-08-19T12:58:17;2.60;;;1.27;;
5209;SDS011;2624;48.048;11.706;2022-08-19T13:03:20;4.33;;;1.57;;
5209;SDS011;2624;48.048;11.706;2022-08-19T13:08:27;8.90;;;1.50;;
5209;SDS011;2624;48.048;11.706;2022-08-19T13:13:29;1.60;;;1.50;;
5209;SDS011;2624;48.048;11.706;2022-08-19T13:18:32;1.03;;;1.03;;
5209;SDS011;2624;48.048;11.706;2022-08-19T13:23:34;1.00;;;0.97;;
5209;SDS011;2624;48.048;11.706;2022-08-19T13:28:36;1.33;;;1.27;;
5209;SDS011;2624;48.048;11.706;2022-08-19T13:33:57;1.00;;;1.00;;
5209;SDS011;2624;48.048;11.706;2022-08-19T13:38:59;1.00;;;1.00;;
5209;SDS011;2624;48.048;11.706;2022-08-19T13:44:01;1.03;;;0.80;;
5209;SDS011;2624;48.048;11.706;2022-08-19T13:49:05;0.90;;;0.90;;
5209;SDS011;2624;48.048;11.706;2022-08-19T13:54:06;1.03;;;1.03;;
5209;SDS011;2624;48.048;11.706;2022-08-19T13:59:08;1.00;;;1.00;;
5209;SDS011;2624;48.048;11.706;2022-08-19T14:04:11;0.63;;;0.63;;
5209;SDS011;2624;48.048;11.706;2022-08-19T14:09:13;0.90;;;0.90;;
5209;SDS011;2624;48.048;11.706;2022-08-19T14:14:15;1.43;;;1.33;;
5209;SDS011;2624;48.048;11.706;2022-08-19T14:19:18;1.10;;;1.10;;
5209;SDS011;2624;48.048;11.706;2022-08-19T14:24:20;1.30;;;1.30;;
5209;SDS011;2624;48.048;11.706;2022-08-19T14:29:21;1.00;;;1.00;;
5209;SDS011;2624;48.048;11.706;2022-08-19T14:34:25;1.40;;;1.40;;
5209;SDS011;2624;48.048;11.706;2022-08-19T14:39:26;1.40;;;1.27;;
5209;SDS011;2624;48.048;11.706;2022-08-19T14:44:28;1.80;;;1.70;;
5209;SDS011;2624;48.048;11.706;2022-08-19T14:49:35;1.40;;;1.40;;
5209;SDS011;2624;48.048;11.706;2022-08-19T14:54:37;1.30;;;1.20;;
5209;SDS011;2624;48.048;11.706;2022-08-19T14:59:39;1.37;;;1.37;;
5209;SDS011;2624;48.048;11.706;2022-08-19T15:04:42;1.40;;;1.33;;
5209;SDS011;2624;48.048;11.706;2022-08-19T15:09:44;1.47;;;1.40;;
5209;SDS011;2624;48.048;11.706;2022-08-19T15:14:46;1.60;;;1.60;;
5209;SDS011;2624;48.048;11.706;2022-08-19T15:19:51;0.80;;;0.80;;
5209;SDS011;2624;48.048;11.706;2022-08-19T15:24:53;1.03;;;1.03;;
5209;SDS011;2624;48.048;11.706;2022-08-19T15:29:56;1.20;;;1.13;;
5209;SDS011;2624;48.048;11.706;2022-08-19T15:34:59;0.90;;;0.90;;
5209;SDS011;2624;48.048;11.706;2022-08-19T15:40:03;1.20;;;1.20;;
5209;SDS011;2624;48.048;11.706;2022-08-19T15:45:06;1.20;;;1.20;;
5209;SDS011;2624;48.048;11.706;2022-08-19T15:50:12;1.90;;;1.10;;
5209;SDS011;2624;48.048;11.706;2022-08-19T15:55:22;1.33;;;1.33;;
5209;SDS011;2624;48.048;11.706;2022-08-19T16:00:25;2.60;;;1.20;;
5209;SDS011;2624;48.048;11.706;2022-08-19T16:05:46;1.30;;;1.30;;
5209;SDS011;2624;48.048;11.706;2022-08-19T16:11:05;1.27;;;1.27;;
5209;SDS011;2624;48.048;11.706;2022-08-19T16:16:07;1.40;;;1.30;;
5209;SDS011;2624;48.048;11.706;2022-08-19T16:21:10;1.57;;;1.57;;
5209;SDS011;2624;48.048;11.706;2022-08-19T16:26:13;1.80;;;1.70;;
5209;SDS011;2624;48.048;11.706;2022-08-19T16:31:16;1.77;;;1.67;;
5209;SDS011;2624;48.048;11.706;2022-08-19T16:36:19;1.93;;;1.83;;
5209;SDS011;2624;48.048;11.706;2022-08-19T16:41:23;1.60;;;1.50;;
5209;SDS011;2624;48.048;11.706;2022-08-19T16:46:26;1.30;;;1.30;;
5209;SDS011;2624;48.048;11.706;2022-08-19T16:51:30;1.43;;;1.33;;
5209;SDS011;2624;48.048;11.706;2022-08-19T16:56:32;1.60;;;1.50;;
5209;SDS011;2624;48.048;11.706;2022-08-19T17:01:34;1.40;;;1.40;;
5209;SDS011;2624;48.048;11.706;2022-08-19T17:06:38;0.93;;;0.93;;
5209;SDS011;2624;48.048;11.706;2022-08-19T17:11:40;1.20;;;1.20;;
5209;SDS011;2624;48.048;11.706;2022-08-19T17:16:41;2.63;;;1.33;;
5209;SDS011;2624;48.048;11.706;2022-08-19T17:21:45;0.60;;;0.60;;
5209;SDS011;2624;48.048;11.706;2022-08-19T17:26:47;1.07;;;1.07;;
5209;SDS011;2624;48.048;11.706;2022-08-19T17:31:49;1.00;;;1.00;;
5209;SDS011;2624;48.048;11.706;2022-08-19T17:36:52;1.00;;;1.00;;
5209;SDS011;2624;48.048;11.706;2022-08-19T17:41:55;1.27;;;1.27;;
5209;SDS011;2624;48.048;11.706;2022-08-19T17:46:57;5.50;;;1.10;;
5209;SDS011;2624;48.048;11.706;2022-08-19T17:52:00;1.10;;;1.10;;
5209;SDS011;2624;48.048;11.706;2022-08-19T17:57:02;0.90;;;0.90;;
5209;SDS011;2624;48.048;11.706;2022-08-19T18:02:04;1.23;;;1.20;;
5209;SDS011;2624;48.048;11.706;2022-08-19T18:07:08;0.83;;;0.83;;
5209;SDS011;2624;48.048;11.706;2022-08-19T18:12:10;1.23;;;1.23;;
5209;SDS011;2624;48.048;11.706;2022-08-19T18:17:15;1.40;;;1.07;;
5209;SDS011;2624;48.048;11.706;2022-08-19T18:22:23;1.17;;;1.17;;
5209;SDS011;2624;48.048;11.706;2022-08-19T18:27:27;1.40;;;1.30;;
5209;SDS011;2624;48.048;11.706;2022-08-19T18:32:29;0.87;;;0.87;;
5209;SDS011;2624;48.048;11.706;2022-08-19T18:37:34;0.93;;;0.93;;
5209;SDS011;2624;48.048;11.706;2022-08-19T18:42:37;1.17;;;1.10;;
5209;SDS011;2624;48.048;11.706;2022-08-19T18:48:00;1.40;;;1.40;;
5209;SDS011;2624;48.048;11.706;2022-08-19T18:53:20;1.60;;;1.60;;
5209;SDS011;2624;48.048;11.706;2022-08-19T18:58:22;1.90;;;1.70;;
5209;SDS011;2624;48.048;11.706;2022-08-19T19:03:30;2.10;;;2.00;;
5209;SDS011;2624;48.048;11.706;2022-08-19T19:08:34;1.90;;;1.90;;
5209;SDS011;2624;48.048;11.706;2022-08-19T19:13:36;2.27;;;2.03;;
5209;SDS011;2624;48.048;11.706;2022-08-19T19:18:40;2.43;;;2.33;;
5209;SDS011;2624;48.048;11.706;2022-08-19T19:23:43;2.80;;;2.60;;
5209;SDS011;2624;48.048;11.706;2022-08-19T19:28:46;3.37;;;3.17;;
5209;SDS011;2624;48.048;11.706;2022-08-19T19:33:48;4.10;;;3.40;;
5209;SDS011;2624;48.048;11.706;2022-08-19T19:38:51;4.53;;;4.23;;
5209;SDS011;2624;48.048;11.706;2022-08-19T19:43:54;5.30;;;4.17;;
5209;SDS011;2624;48.048;11.706;2022-08-19T19:49:00;4.80;;;3.73;;
5209;SDS011;2624;48.048;11.706;2022-08-19T19:54:03;4.10;;;3.70;;
5209;SDS011;2624;48.048;11.706;2022-08-19T19:59:05;5.33;;;4.63;;
5209;SDS011;2624;48.048;11.706;2022-08-19T20:04:07;5.93;;;5.23;;
5209;SDS011;2624;48.048;11.706;2022-08-19T20:09:10;4.60;;;4.20;;
5209;SDS011;2624;48.048;11.706;2022-08-19T20:14:15;5.00;;;4.57;;
5209;SDS011;2624;48.048;11.706;2022-08-19T20:19:21;4.73;;;4.17;;
5209;SDS011;2624;48.048;11.706;2022-08-19T20:24:28;4.47;;;3.93;;
5209;SDS011;2624;48.048;11.706;2022-08-19T20:29:32;7.07;;;5.30;;
5209;SDS011;2624;48.048;11.706;2022-08-19T20:34:34;3.87;;;3.57;;
5209;SDS011;2624;48.048;11.706;2022-08-19T20:39:37;4.37;;;3.73;;
5209;SDS011;2624;48.048;11.706;2022-08-19T20:44:39;3.70;;;3.50;;
5209;SDS011;2624;48.048;11.706;2022-08-19T20:49:41;4.10;;;3.80;;
5209;SDS011;2624;48.048;11.706;2022-08-19T20:54:44;4.23;;;3.93;;
5209;SDS011;2624;48.048;11.706;2022-08-19T20:59:45;5.83;;;4.20;;
5209;SDS011;2624;48.048;11.706;2022-08-19T21:04:47;4.07;;;3.87;;
5209;SDS011;2624;48.048;11.706;2022-08-19T21:09:50;3.40;;;3.10;;
5209;SDS011;2624;48.048;11.706;2022-08-19T21:14:52;4.17;;;3.80;;
5209;SDS011;2624;48.048;11.706;2022-08-19T21:19:54;4.63;;;3.07;;
5209;SDS011;2624;48.048;11.706;2022-08-19T21:24:57;8.00;;;3.90;;
5209;SDS011;2624;48.048;11.706;2022-08-19T21:29:58;4.20;;;3.80;;
5209;SDS011;2624;48.048;11.706;2022-08-19T21:35:00;3.90;;;3.60;;
5209;SDS011;2624;48.048;11.706;2022-08-19T21:40:04;4.00;;;3.50;;
5209;SDS011;2624;48.048;11.706;2022-08-19T21:45:06;4.50;;;4.20;;
5209;SDS011;2624;48.048;11.706;2022-08-19T21:50:09;5.67;;;5.27;;
5209;SDS011;2624;48.048;11.706;2022-08-19T21:55:13;4.20;;;3.90;;
5209;SDS011;2624;48.048;11.706;2022-08-19T22:00:17;4.33;;;4.00;;
5209;SDS011;2624;48.048;11.706;2022-08-19T22:05:21;8.93;;;4.40;;
5209;SDS011;2624;48.048;11.706;2022-08-19T22:10:25;3.10;;;2.87;;
5209;SDS011;2624;48.048;11.706;2022-08-19T22:15:29;4.20;;;3.83;;
5209;SDS011;2624;48.048;11.706;2022-08-19T22:20:31;4.70;;;4.40;;
5209;SDS011;2624;48.048;11.706;2022-08-19T22:25:35;4.20;;;3.80;;
5209;SDS011;2624;48.048;11.706;2022-08-19T22:30:40;5.30;;;4.90;;
5209;SDS011;2624;48.048;11.706;2022-08-19T22:35:44;4.70;;;4.30;;
5209;SDS011;2624;48.048;11.706;2022-08-19T22:40:48;5.77;;;4.87;;
5209;SDS011;2624;48.048;11.706;2022-08-19T22:45:52;4.90;;;4.50;;
5209;SDS011;2624;48.048;11.706;2022-08-19T22:50:54;5.63;;;5.13;;
5209;SDS011;2624;48.048;11.706;2022-08-19T22:56:16;5.90;;;5.23;;
5209;SDS011;2624;48.048;11.706;2022-08-19T23:01:19;5.00;;;4.60;;
5209;SDS011;2624;48.048;11.706;2022-08-19T23:06:23;7.10;;;6.40;;
5209;SDS011;2624;48.048;11.706;2022-08-19T23:11:26;6.30;;;5.17;;
5209;SDS011;2624;48.048;11.706;2022-08-19T23:16:28;4.60;;;4.30;;
5209;SDS011;2624;48.048;11.706;2022-08-19T23:21:30;3.70;;;3.50;;
5209;SDS011;2624;48.048;11.706;2022-08-19T23:26:33;5.27;;;4.67;;
5209;SDS011;2624;48.048;11.706;2022-08-19T23:31:35;4.60;;;4.20;;
5209;SDS011;2624;48.048;11.706;2022-08-19T23:36:37;4.50;;;4.23;;
5209;SDS011;2624;48.048;11.706;2022-08-19T23:41:40;4.63;;;4.23;;
5209;SDS011;2624;48.048;11.706;2022-08-19T23:46:41;4.97;;;4.50;;
5209;SDS011;2624;48.048;11.706;2022-08-19T23:51:43;3.90;;;3.60;;
5209;SDS011;2624;48.048;11.706;2022-08-19T23:56:46;3.53;;;3.17;;
